Time;durP1;ratioP1;P1;durP2;ratioP2;P2;SDS_P1;SDS_P2;PMS_P1;PMS_P2;Temp;Humidity;BMP_temperature;BMP_pressure;BME280_temperature;BME280_humidity;BME280_pressure;Samples;Min_cycle;Max_cycle;Signal;HPM_P1;HPM_P2
2023/05/20 00:01:58;;;;;;;4.23;3.57;;;13.70;99.90;;;;;;4994711;28;20177;-71
2023/05/20 00:04:24;;;;;;;6.27;4.30;;;13.70;99.90;;;;;;4994678;28;20193;-71
2023/05/20 00:06:49;;;;;;;4.83;4.33;;;13.80;99.90;;;;;;4994555;28;20267;-71
2023/05/20 00:09:16;;;;;;;5.77;4.93;;;13.90;99.90;;;;;;4994242;28;20175;-71
2023/05/20 00:11:42;;;;;;;5.70;4.40;;;13.70;99.90;;;;;;4994457;28;20170;-71
2023/05/20 00:14:07;;;;;;;4.50;4.10;;;13.90;99.90;;;;;;4994184;28;20415;-70
2023/05/20 00:16:33;;;;;;;5.37;4.50;;;13.90;99.90;;;;;;4994664;28;20512;-71
2023/05/20 00:18:58;;;;;;;4.93;4.03;;;13.80;99.90;;;;;;4994612;28;20169;-70
2023/05/20 00:21:24;;;;;;;5.10;3.80;;;13.80;99.90;;;;;;4995043;28;20262;-71
2023/05/20 00:23:50;;;;;;;6.07;4.83;;;13.90;99.90;;;;;;4994484;28;20191;-71
2023/05/20 00:26:16;;;;;;;4.97;4.50;;;13.90;99.90;;;;;;4993828;28;20631;-71
2023/05/20 00:28:41;;;;;;;6.17;4.27;;;13.90;99.90;;;;;;4993911;28;20182;-71
2023/05/20 00:31:07;;;;;;;5.13;4.43;;;13.80;99.90;;;;;;4994389;28;20655;-71
2023/05/20 00:33:35;;;;;;;5.60;4.67;;;13.80;99.90;;;;;;4994453;28;20539;-71
2023/05/20 00:36:00;;;;;;;6.60;3.90;;;13.90;99.90;;;;;;4993955;28;20205;-71
2023/05/20 00:38:26;;;;;;;4.70;4.10;;;14.00;99.90;;;;;;4994258;28;20416;-71
2023/05/20 00:40:51;;;;;;;6.27;4.40;;;14.00;99.90;;;;;;4994030;28;20202;-71
2023/05/20 00:43:19;;;;;;;7.10;5.00;;;13.90;99.90;;;;;;4993065;28;20303;-71
2023/05/20 00:45:45;;;;;;;5.03;4.47;;;13.90;99.90;;;;;;4993809;28;20224;-71
2023/05/20 00:48:11;;;;;;;7.17;5.17;;;13.90;99.90;;;;;;4993791;28;20975;-71
2023/05/20 00:50:38;;;;;;;6.10;4.90;;;13.90;99.90;;;;;;4993786;28;20469;-71
2023/05/20 00:53:04;;;;;;;7.80;4.50;;;14.00;99.90;;;;;;4993866;28;20777;-71
2023/05/20 00:55:30;;;;;;;9.13;6.00;;;14.00;99.90;;;;;;4993476;28;20959;-71
2023/05/20 00:57:56;;;;;;;8.90;4.83;;;14.00;99.90;;;;;;4976789;28;20495;-70
2023/05/20 01:00:21;;;;;;;4.97;4.57;;;14.20;99.90;;;;;;4993630;28;20215;-70
2023/05/20 01:02:47;;;;;;;6.80;4.33;;;14.10;99.90;;;;;;4993260;28;20663;-71
2023/05/20 01:05:13;;;;;;;4.93;4.37;;;14.20;99.90;;;;;;4992622;28;20186;-70
2023/05/20 01:07:39;;;;;;;5.13;4.63;;;14.20;99.90;;;;;;4993514;28;20182;-71
2023/05/20 01:10:06;;;;;;;6.67;4.63;;;14.20;99.90;;;;;;4993657;28;20246;-70
2023/05/20 01:12:36;;;;;;;9.17;4.20;;;14.30;99.90;;;;;;4993124;28;20510;-71
2023/05/20 01:15:08;;;;;;;8.27;5.03;;;14.30;99.90;;;;;;4992953;28;20442;-71
2023/05/20 01:17:38;;;;;;;5.43;4.23;;;14.30;99.90;;;;;;4993192;28;20569;-71
2023/05/20 01:20:06;;;;;;;5.30;4.80;;;14.40;99.90;;;;;;4975655;28;20485;-71
2023/05/20 01:22:32;;;;;;;6.83;4.80;;;14.40;99.90;;;;;;4975615;28;20916;-71
2023/05/20 01:24:57;;;;;;;5.03;4.53;;;14.50;99.90;;;;;;4993015;28;20414;-71
2023/05/20 01:27:23;;;;;;;4.90;4.50;;;14.50;99.90;;;;;;4992582;28;20649;-71
2023/05/20 01:29:50;;;;;;;5.30;4.80;;;14.60;99.90;;;;;;4992709;28;20570;-71
2023/05/20 01:32:44;;;;;;;8.30;5.30;;;14.50;99.90;;;;;;4992909;28;20229;-71
2023/05/20 01:35:10;;;;;;;5.70;5.20;;;14.30;99.90;;;;;;4989944;28;20457;-70
2023/05/20 01:37:38;;;;;;;6.73;5.60;;;14.30;99.90;;;;;;4993335;28;20466;-71
2023/05/20 01:40:06;;;;;;;5.70;5.10;;;14.40;99.90;;;;;;4993247;28;20443;-71
2023/05/20 01:42:33;;;;;;;5.50;5.00;;;14.40;99.90;;;;;;4992729;28;20418;-71
2023/05/20 01:44:59;;;;;;;5.13;4.70;;;14.40;99.90;;;;;;4992416;28;20508;-71
2023/05/20 01:47:24;;;;;;;6.37;4.83;;;14.50;99.90;;;;;;4975177;28;20581;-70
2023/05/20 01:49:52;;;;;;;5.07;4.57;;;14.40;99.90;;;;;;4975284;28;20431;-71
2023/05/20 01:52:19;;;;;;;5.13;4.63;;;14.40;99.90;;;;;;4992691;28;20195;-71
2023/05/20 01:54:49;;;;;;;5.23;4.73;;;14.40;99.90;;;;;;4992688;28;20769;-71
2023/05/20 01:57:19;;;;;;;7.17;4.77;;;14.40;99.90;;;;;;4991316;28;20455;-71
2023/05/20 01:59:44;;;;;;;6.63;5.30;;;14.40;99.90;;;;;;4992729;28;20421;-70
2023/05/20 02:02:10;;;;;;;4.80;4.40;;;14.50;99.90;;;;;;4992573;28;20422;-70
2023/05/20 02:04:35;;;;;;;6.00;5.47;;;14.50;99.90;;;;;;4992365;28;20174;-70
2023/05/20 02:07:01;;;;;;;7.23;5.73;;;14.40;99.90;;;;;;4992492;28;20193;-71
2023/05/20 02:09:27;;;;;;;6.03;4.80;;;14.50;99.90;;;;;;4992603;28;20565;-71
2023/05/20 02:11:53;;;;;;;5.13;4.70;;;14.50;99.90;;;;;;4991676;28;20185;-70
2023/05/20 02:14:18;;;;;;;5.53;4.87;;;14.50;99.90;;;;;;4992344;28;20465;-70
2023/05/20 02:16:46;;;;;;;5.83;5.23;;;14.40;99.90;;;;;;4992484;28;20205;-71
2023/05/20 02:19:12;;;;;;;6.70;6.00;;;14.40;99.90;;;;;;4992301;28;20171;-72
2023/05/20 02:21:41;;;;;;;5.40;4.90;;;14.30;99.90;;;;;;4994851;28;20484;-71
2023/05/20 02:24:06;;;;;;;5.57;5.07;;;14.20;99.90;;;;;;4998768;28;20172;-71
2023/05/20 02:26:33;;;;;;;6.57;5.00;;;14.00;99.90;;;;;;4998012;28;21027;-71
2023/05/20 02:28:59;;;;;;;6.13;5.63;;;13.90;99.90;;;;;;4998966;28;20722;-71
2023/05/20 02:31:24;;;;;;;6.00;5.07;;;13.90;99.90;;;;;;4998618;28;20497;-70
2023/05/20 02:33:50;;;;;;;6.10;4.87;;;13.90;99.90;;;;;;4998316;28;20171;-70
2023/05/20 02:36:16;;;;;;;5.27;4.87;;;13.80;99.90;;;;;;4998408;28;20202;-71
2023/05/20 02:38:42;;;;;;;5.53;5.00;;;13.80;99.90;;;;;;4998574;28;20170;-70
2023/05/20 02:41:07;;;;;;;7.17;4.80;;;13.80;99.90;;;;;;4998373;28;20601;-71
2023/05/20 02:43:33;;;;;;;5.93;5.03;;;13.80;99.90;;;;;;4998456;28;20438;-71
2023/05/20 02:45:59;;;;;;;5.93;5.30;;;13.80;99.90;;;;;;4998545;28;20191;-71
2023/05/20 02:48:25;;;;;;;5.93;5.43;;;13.70;99.90;;;;;;4998526;28;20234;-71
2023/05/20 02:50:51;;;;;;;6.73;5.33;;;13.60;99.90;;;;;;4998877;28;20196;-71
2023/05/20 02:53:17;;;;;;;6.47;5.87;;;13.50;99.90;;;;;;4998523;28;20491;-70
2023/05/20 02:55:46;;;;;;;4.83;4.43;;;13.50;99.90;;;;;;4998306;28;20542;-70
2023/05/20 02:58:12;;;;;;;6.70;5.40;;;13.60;99.90;;;;;;4980873;28;20776;-70
2023/05/20 03:00:39;;;;;;;5.93;5.30;;;13.50;99.90;;;;;;4998874;28;20490;-70
2023/05/20 03:03:06;;;;;;;5.07;4.67;;;13.40;99.90;;;;;;4998726;28;20787;-70
2023/05/20 03:05:32;;;;;;;5.20;4.70;;;13.40;99.90;;;;;;4998256;28;20425;-70
2023/05/20 03:07:58;;;;;;;5.40;5.00;;;13.40;99.90;;;;;;4998400;28;20896;-70
2023/05/20 03:10:23;;;;;;;6.40;4.97;;;13.40;99.90;;;;;;4998261;28;20919;-70
2023/05/20 03:12:49;;;;;;;6.80;5.80;;;13.30;99.90;;;;;;4997897;28;20180;-70
2023/05/20 03:15:15;;;;;;;5.97;5.27;;;13.40;99.90;;;;;;4998080;28;20193;-70
2023/05/20 03:17:40;;;;;;;5.47;4.97;;;13.30;99.90;;;;;;4998520;28;20244;-70
2023/05/20 03:20:06;;;;;;;5.50;5.10;;;13.40;99.90;;;;;;4998398;28;20170;-70
2023/05/20 03:22:32;;;;;;;7.53;5.80;;;13.20;99.90;;;;;;4997411;28;20168;-71
2023/05/20 03:24:59;;;;;;;5.73;5.23;;;13.20;99.90;;;;;;4998564;28;20401;-70
2023/05/20 03:27:25;;;;;;;5.67;5.10;;;13.10;99.90;;;;;;4997623;28;20222;-71
2023/05/20 03:29:53;;;;;;;6.30;5.70;;;13.10;99.90;;;;;;4998113;28;20414;-70
2023/05/20 03:32:19;;;;;;;5.30;4.90;;;12.90;99.90;;;;;;4997988;28;20726;-70
2023/05/20 03:34:45;;;;;;;6.17;5.57;;;12.90;99.90;;;;;;4994113;28;20441;-70
2023/05/20 03:37:11;;;;;;;6.27;5.77;;;13.00;99.90;;;;;;4995324;28;20522;-70
2023/05/20 03:39:36;;;;;;;6.13;5.63;;;13.00;99.90;;;;;;4977769;28;20177;-70
2023/05/20 03:42:02;;;;;;;7.43;5.37;;;12.90;99.90;;;;;;4994795;28;20535;-70
2023/05/20 03:44:27;;;;;;;6.83;6.13;;;12.90;99.90;;;;;;4994995;28;20250;-70
2023/05/20 03:46:53;;;;;;;6.60;6.00;;;12.80;99.90;;;;;;4995509;28;20197;-70
2023/05/20 03:49:18;;;;;;;5.90;5.40;;;12.80;99.90;;;;;;4994914;28;20177;-70
2023/05/20 03:51:44;;;;;;;5.43;4.97;;;12.80;99.90;;;;;;4977599;28;20545;-72
2023/05/20 03:54:10;;;;;;;6.20;5.60;;;12.90;99.90;;;;;;4995136;28;20171;-71
2023/05/20 03:56:36;;;;;;;7.17;5.77;;;12.90;99.90;;;;;;4993439;28;20216;-70
2023/05/20 03:59:01;;;;;;;9.40;6.17;;;12.90;99.90;;;;;;4994595;28;20400;-70
2023/05/20 04:01:27;;;;;;;6.67;6.07;;;13.00;99.90;;;;;;4995133;28;20226;-71
2023/05/20 04:03:53;;;;;;;6.47;5.77;;;13.10;99.90;;;;;;4994689;28;20161;-71
2023/05/20 04:06:18;;;;;;;6.73;6.13;;;13.20;99.90;;;;;;4994405;28;20355;-72
2023/05/20 04:08:44;;;;;;;6.50;5.90;;;13.30;99.90;;;;;;4994530;28;20201;-71
2023/05/20 04:11:10;;;;;;;6.63;5.83;;;13.40;99.90;;;;;;4994542;28;20228;-71
2023/05/20 04:13:35;;;;;;;5.90;5.30;;;13.30;99.90;;;;;;4993567;28;20466;-71
2023/05/20 04:16:01;;;;;;;7.37;5.20;;;13.30;99.90;;;;;;4994178;28;20286;-71
2023/05/20 04:18:30;;;;;;;6.53;5.93;;;13.20;99.90;;;;;;4995302;28;20179;-71
2023/05/20 04:20:56;;;;;;;6.63;5.33;;;13.40;99.90;;;;;;4994419;28;20964;-71
2023/05/20 04:23:22;;;;;;;5.73;5.13;;;13.50;99.90;;;;;;4994239;28;20494;-71
2023/05/20 04:25:48;;;;;;;6.10;5.60;;;13.60;99.90;;;;;;4995835;23;20219;-73
2023/05/20 04:28:15;;;;;;;5.57;5.17;;;13.70;99.90;;;;;;4975138;28;20414;-70
2023/05/20 04:30:41;;;;;;;5.70;5.20;;;13.70;99.90;;;;;;4976072;28;20412;-73
2023/05/20 04:33:07;;;;;;;6.37;5.77;;;13.60;99.90;;;;;;4976163;28;20795;-73
2023/05/20 04:35:33;;;;;;;7.10;6.13;;;13.70;99.90;;;;;;4975667;28;20463;-72
2023/05/20 04:37:59;;;;;;;7.07;6.47;;;13.90;99.90;;;;;;4975890;28;20403;-72
2023/05/20 04:40:26;;;;;;;5.10;4.70;;;13.90;99.90;;;;;;4974367;28;20412;-72
2023/05/20 04:42:51;;;;;;;5.90;5.30;;;14.00;99.90;;;;;;4975141;28;20499;-72
2023/05/20 04:45:17;;;;;;;5.97;5.47;;;14.00;99.90;;;;;;4973839;28;20515;-73
2023/05/20 04:47:44;;;;;;;6.53;5.90;;;14.00;99.90;;;;;;4975634;28;20700;-73
2023/05/20 04:50:11;;;;;;;5.93;5.40;;;14.00;99.90;;;;;;4975880;28;20166;-73
2023/05/20 04:52:40;;;;;;;5.80;5.20;;;13.90;99.90;;;;;;4975640;28;20419;-73
2023/05/20 04:55:09;;;;;;;5.57;5.13;;;14.00;99.90;;;;;;4974548;28;21013;-73
2023/05/20 04:57:35;;;;;;;6.50;6.00;;;14.00;99.90;;;;;;4973724;28;20437;-72
2023/05/20 05:00:00;;;;;;;7.10;6.40;;;14.10;99.90;;;;;;4975323;28;20413;-72
2023/05/20 05:02:26;;;;;;;6.70;5.33;;;13.90;99.90;;;;;;4975856;28;20761;-73
2023/05/20 05:04:52;;;;;;;6.43;5.83;;;14.00;99.90;;;;;;4975292;28;20174;-73
2023/05/20 05:07:18;;;;;;;5.47;4.97;;;14.20;99.90;;;;;;4974941;28;20948;-73
2023/05/20 05:09:43;;;;;;;6.77;6.17;;;14.40;99.90;;;;;;4973778;28;20227;-73
2023/05/20 05:12:09;;;;;;;6.33;5.83;;;14.50;99.90;;;;;;4973427;28;20174;-73
2023/05/20 05:14:34;;;;;;;4.60;4.20;;;14.70;99.90;;;;;;4975153;28;20173;-73
2023/05/20 05:17:00;;;;;;;6.07;5.57;;;14.90;99.90;;;;;;4973750;28;20231;-73
2023/05/20 05:19:25;;;;;;;6.13;5.63;;;15.00;99.90;;;;;;4975126;28;20547;-73
2023/05/20 05:21:51;;;;;;;8.50;6.83;;;15.10;99.90;;;;;;4974899;28;20699;-73
2023/05/20 05:24:16;;;;;;;7.43;6.20;;;15.20;99.90;;;;;;4975309;28;20634;-72
2023/05/20 05:26:42;;;;;;;6.70;6.10;;;15.20;99.90;;;;;;4973822;28;20599;-73
2023/05/20 05:29:08;;;;;;;6.70;5.97;;;15.40;99.90;;;;;;4974662;28;20173;-73
2023/05/20 05:31:33;;;;;;;6.77;6.13;;;15.50;99.90;;;;;;4974781;28;20177;-73
2023/05/20 05:33:59;;;;;;;6.93;6.33;;;15.70;99.90;;;;;;4974639;28;20685;-73
2023/05/20 05:36:25;;;;;;;6.87;6.27;;;15.80;99.90;;;;;;4974595;28;20204;-73
2023/05/20 05:38:50;;;;;;;6.10;5.50;;;15.70;99.90;;;;;;4974737;28;20181;-73
2023/05/20 05:41:16;;;;;;;6.20;5.70;;;15.70;99.90;;;;;;4974712;28;20175;-73
2023/05/20 05:43:41;;;;;;;8.87;5.90;;;15.80;99.90;;;;;;4974338;28;20177;-73
2023/05/20 05:46:08;;;;;;;6.40;5.80;;;15.70;99.90;;;;;;4974514;28;20274;-73
2023/05/20 05:48:35;;;;;;;6.53;5.73;;;15.70;99.90;;;;;;4974789;28;20226;-73
2023/05/20 05:51:00;;;;;;;6.80;6.20;;;15.80;99.90;;;;;;4974500;28;20419;-73
2023/05/20 05:53:26;;;;;;;7.10;5.60;;;15.50;99.90;;;;;;4974561;28;20411;-72
2023/05/20 05:55:51;;;;;;;5.77;5.27;;;15.50;99.90;;;;;;4973505;28;20715;-73
2023/05/20 05:58:17;;;;;;;10.40;6.10;;;15.70;99.90;;;;;;4973138;28;20179;-72
2023/05/20 06:00:43;;;;;;;6.30;5.70;;;15.70;99.90;;;;;;4974345;28;20180;-73
2023/05/20 06:03:08;;;;;;;7.47;6.10;;;15.90;99.90;;;;;;4974291;28;20208;-73
2023/05/20 06:05:34;;;;;;;6.30;5.70;;;16.00;99.90;;;;;;4974259;28;20268;-73
2023/05/20 06:07:59;;;;;;;7.30;6.60;;;16.20;99.90;;;;;;4974110;28;20203;-73
2023/05/20 06:10:25;;;;;;;7.23;5.73;;;16.30;99.90;;;;;;4972845;28;20181;-73
2023/05/20 06:12:50;;;;;;;6.53;5.87;;;16.20;99.90;;;;;;4973753;28;20175;-73
2023/05/20 06:15:16;;;;;;;7.33;6.63;;;16.00;99.90;;;;;;4973869;28;20310;-73
2023/05/20 06:17:41;;;;;;;6.37;5.77;;;15.90;99.90;;;;;;4974209;28;20193;-73
2023/05/20 06:20:07;;;;;;;7.50;5.80;;;16.00;99.90;;;;;;4974123;28;20216;-73
2023/05/20 06:22:33;;;;;;;7.20;6.60;;;15.70;99.90;;;;;;4973893;28;20312;-73
2023/05/20 06:25:01;;;;;;;7.07;6.40;;;15.90;99.90;;;;;;4973796;28;20420;-72
2023/05/20 06:27:26;;;;;;;6.93;6.10;;;15.80;99.90;;;;;;4973590;28;20348;-73
2023/05/20 06:29:52;;;;;;;7.30;6.60;;;16.00;99.90;;;;;;4974423;28;20440;-73
2023/05/20 06:32:17;;;;;;;7.20;6.20;;;16.20;99.90;;;;;;4974584;28;20181;-73
2023/05/20 06:34:44;;;;;;;8.43;6.40;;;16.20;99.90;;;;;;4974366;28;20187;-73
2023/05/20 06:37:10;;;;;;;7.60;6.90;;;15.90;99.90;;;;;;4972949;28;20573;-73
2023/05/20 06:39:35;;;;;;;7.73;7.00;;;15.90;99.90;;;;;;4973900;28;20412;-73
2023/05/20 06:42:01;;;;;;;6.33;5.73;;;16.10;99.90;;;;;;4974292;28;20415;-72
2023/05/20 06:44:26;;;;;;;6.33;5.83;;;16.30;99.90;;;;;;4973948;28;20207;-73
2023/05/20 06:46:52;;;;;;;7.33;6.63;;;16.60;99.90;;;;;;4973866;28;20594;-72
2023/05/20 06:49:18;;;;;;;7.40;6.40;;;17.00;99.90;;;;;;4973780;28;20569;-73
2023/05/20 06:51:43;;;;;;;7.17;6.47;;;17.30;99.90;;;;;;4973939;28;20196;-73
2023/05/20 06:54:09;;;;;;;7.97;5.80;;;17.40;99.90;;;;;;4973990;28;20181;-73
2023/05/20 06:56:35;;;;;;;6.67;6.07;;;17.10;99.90;;;;;;4972034;28;20218;-73
2023/05/20 06:59:00;;;;;;;6.50;5.90;;;17.00;99.90;;;;;;4972436;28;20459;-72
2023/05/20 07:01:26;;;;;;;6.93;6.33;;;17.00;99.90;;;;;;4972568;28;20177;-73
2023/05/20 07:03:51;;;;;;;7.90;5.70;;;17.30;99.90;;;;;;4973535;28;20177;-73
2023/05/20 07:06:17;;;;;;;6.43;5.83;;;17.60;99.90;;;;;;4973677;28;20670;-73
2023/05/20 07:08:43;;;;;;;8.10;7.30;;;17.30;99.90;;;;;;4974964;28;20189;-73
2023/05/20 07:11:08;;;;;;;9.53;6.87;;;17.10;99.90;;;;;;4975890;28;20198;-73
2023/05/20 07:13:34;;;;;;;7.07;6.37;;;16.90;99.90;;;;;;4976983;28;20524;-72
2023/05/20 07:15:59;;;;;;;6.57;5.97;;;17.10;99.90;;;;;;4975867;28;20209;-73
2023/05/20 07:18:25;;;;;;;6.80;6.13;;;17.20;99.90;;;;;;4977238;28;20172;-73
2023/05/20 07:20:51;;;;;;;6.30;5.80;;;17.20;99.90;;;;;;4975801;28;20632;-72
2023/05/20 07:23:17;;;;;;;7.53;6.83;;;17.20;99.90;;;;;;4975687;28;20177;-73
2023/05/20 07:25:42;;;;;;;7.83;7.13;;;17.30;99.90;;;;;;4977004;28;20479;-72
2023/05/20 07:28:08;;;;;;;7.50;6.27;;;17.20;99.90;;;;;;4976641;28;20181;-71
2023/05/20 07:30:33;;;;;;;7.83;6.60;;;17.30;99.90;;;;;;4976969;28;20176;-73
2023/05/20 07:32:59;;;;;;;8.40;6.63;;;17.50;99.90;;;;;;4976489;28;20173;-73
2023/05/20 07:35:25;;;;;;;7.60;6.90;;;17.10;99.90;;;;;;4976656;28;20200;-73
2023/05/20 07:37:51;;;;;;;7.53;6.93;;;17.10;99.90;;;;;;4977060;28;20663;-73
2023/05/20 07:40:16;;;;;;;7.37;6.77;;;17.40;99.90;;;;;;4976855;28;20248;-73
2023/05/20 07:42:42;;;;;;;7.43;6.83;;;17.50;99.90;;;;;;4976250;28;20470;-73
2023/05/20 07:45:08;;;;;;;7.70;7.10;;;17.10;99.90;;;;;;4976573;28;20648;-72
2023/05/20 07:47:34;;;;;;;8.00;7.30;;;16.90;99.90;;;;;;4976440;28;20193;-72
2023/05/20 07:49:59;;;;;;;7.20;6.50;;;17.00;99.90;;;;;;4976811;28;20508;-73
2023/05/20 07:52:25;;;;;;;7.80;6.30;;;17.10;99.90;;;;;;4976384;28;20165;-73
2023/05/20 07:54:50;;;;;;;9.93;7.73;;;17.30;99.90;;;;;;4976363;28;20768;-73
2023/05/20 07:57:16;;;;;;;7.30;6.67;;;17.20;99.90;;;;;;4975076;28;20188;-72
2023/05/20 07:59:41;;;;;;;6.83;6.23;;;17.30;99.90;;;;;;4976361;28;20195;-73
2023/05/20 08:02:07;;;;;;;7.20;6.60;;;17.60;99.90;;;;;;4976697;28;20196;-72
2023/05/20 08:04:33;;;;;;;6.60;6.00;;;17.90;99.90;;;;;;4974952;28;20236;-73
2023/05/20 08:06:59;;;;;;;6.33;5.83;;;18.10;99.90;;;;;;4976463;28;20264;-72
2023/05/20 08:09:25;;;;;;;7.80;7.10;;;18.20;99.90;;;;;;4975266;28;20840;-73
2023/05/20 08:11:50;;;;;;;7.07;6.47;;;17.90;99.90;;;;;;4975362;28;20257;-72
2023/05/20 08:14:16;;;;;;;7.00;6.40;;;17.90;99.90;;;;;;4975658;28;20200;-73
2023/05/20 08:16:42;;;;;;;6.27;5.73;;;18.00;99.90;;;;;;4975734;28;20212;-73
2023/05/20 08:19:07;;;;;;;7.30;6.60;;;18.20;99.90;;;;;;4975515;28;20170;-73
2023/05/20 08:21:34;;;;;;;6.17;5.60;;;18.30;99.90;;;;;;4974509;28;20409;-72
2023/05/20 08:23:59;;;;;;;6.73;5.40;;;18.40;99.90;;;;;;4975920;28;20166;-73
2023/05/20 08:26:25;;;;;;;6.80;6.30;;;18.70;99.90;;;;;;4975102;28;20451;-73
2023/05/20 08:28:51;;;;;;;7.20;6.60;;;18.70;99.90;;;;;;4974393;28;20172;-73
2023/05/20 08:31:17;;;;;;;7.10;6.50;;;18.30;99.90;;;;;;4974565;28;20956;-72
2023/05/20 08:33:43;;;;;;;10.30;7.90;;;18.30;99.90;;;;;;4974786;28;20597;-73
2023/05/20 08:36:08;;;;;;;6.77;5.80;;;18.40;99.90;;;;;;4973129;28;20547;-73
2023/05/20 08:38:35;;;;;;;7.30;6.60;;;18.60;99.90;;;;;;4974529;28;20180;-73
2023/05/20 08:41:00;;;;;;;7.87;7.17;;;18.90;99.90;;;;;;4974743;28;20166;-73
2023/05/20 08:43:26;;;;;;;7.43;6.83;;;19.10;99.90;;;;;;4974053;28;20401;-73
2023/05/20 08:45:51;;;;;;;7.90;7.20;;;19.00;99.90;;;;;;4974888;28;20189;-73
2023/05/20 08:48:17;;;;;;;8.00;7.20;;;19.10;99.90;;;;;;4974250;28;20236;-73
2023/05/20 08:50:48;;;;;;;6.80;6.30;;;18.90;99.90;;;;;;4974237;28;20628;-73
2023/05/20 08:53:14;;;;;;;7.10;6.40;;;19.00;99.90;;;;;;4974414;28;20396;-73
2023/05/20 08:55:45;;;;;;;7.10;6.50;;;19.30;99.90;;;;;;4974522;28;20448;-73
2023/05/20 08:58:11;;;;;;;7.43;6.27;;;19.10;99.90;;;;;;4973755;28;20366;-73
2023/05/20 09:00:37;;;;;;;7.53;6.93;;;18.90;99.90;;;;;;4974487;28;20519;-72
2023/05/20 09:03:04;;;;;;;7.10;6.43;;;18.90;99.90;;;;;;4974546;28;20170;-74
2023/05/20 09:05:30;;;;;;;6.73;6.17;;;19.10;99.90;;;;;;4974608;28;20428;-73
2023/05/20 09:08:08;;;;;;;6.60;6.00;;;19.70;99.90;;;;;;4974010;28;20405;-73
2023/05/20 09:10:35;;;;;;;7.30;6.70;;;19.90;99.90;;;;;;4974131;28;20881;-72
2023/05/20 09:13:03;;;;;;;7.77;7.00;;;19.40;99.90;;;;;;4973756;28;20411;-73
2023/05/20 09:15:32;;;;;;;7.70;6.60;;;18.90;99.90;;;;;;4974134;28;20452;-73
2023/05/20 09:18:02;;;;;;;7.53;6.73;;;18.70;99.90;;;;;;4973901;28;20411;-73
2023/05/20 09:20:29;;;;;;;6.80;6.20;;;18.70;99.90;;;;;;4973997;28;20500;-73
2023/05/20 09:23:01;;;;;;;6.93;6.33;;;18.70;99.90;;;;;;4974745;28;20410;-72
2023/05/20 09:25:31;;;;;;;7.43;6.60;;;19.00;99.90;;;;;;4938039;28;1057485;-73
2023/05/20 09:27:56;;;;;;;6.43;5.93;;;18.90;99.90;;;;;;4974445;28;20463;-73
2023/05/20 09:30:22;;;;;;;8.53;6.63;;;18.90;99.90;;;;;;4974703;28;20413;-73
2023/05/20 09:32:59;;;;;;;6.97;6.37;;;19.20;99.90;;;;;;4973942;28;20640;-73
2023/05/20 09:35:26;;;;;;;7.33;6.67;;;19.80;99.90;;;;;;4974106;28;20440;-73
2023/05/20 09:37:54;;;;;;;7.77;7.17;;;19.90;99.90;;;;;;4974444;28;20424;-73
2023/05/20 09:40:29;;;;;;;8.10;6.60;;;19.40;99.90;;;;;;4973239;28;20413;-73
2023/05/20 09:42:57;;;;;;;7.47;6.87;;;19.60;99.90;;;;;;4974003;28;20901;-73
2023/05/20 09:45:23;;;;;;;8.00;7.20;;;20.10;99.90;;;;;;4974267;28;20772;-73
2023/05/20 09:47:53;;;;;;;7.50;6.80;;;20.30;99.90;;;;;;4973231;28;20508;-73
2023/05/20 09:50:20;;;;;;;7.07;6.43;;;20.20;99.90;;;;;;4974811;28;20181;-73
2023/05/20 09:52:48;;;;;;;7.03;6.43;;;20.30;99.90;;;;;;4974311;28;20415;-73
2023/05/20 09:55:15;;;;;;;7.47;6.77;;;20.60;99.90;;;;;;4974486;28;20539;-73
2023/05/20 09:57:41;;;;;;;7.03;6.43;;;20.50;99.90;;;;;;4973110;28;20803;-72
2023/05/20 10:00:07;;;;;;;7.20;6.50;;;20.70;99.90;;;;;;4974366;28;20401;-72
2023/05/20 10:02:33;;;;;;;7.03;6.33;;;20.50;99.90;;;;;;4973000;28;20408;-73
2023/05/20 10:05:04;;;;;;;6.17;5.67;;;20.40;99.90;;;;;;4974735;28;20487;-73
2023/05/20 10:07:58;;;;;;;7.80;6.97;;;20.20;99.90;;;;;;4976174;28;20431;-72
2023/05/20 10:10:47;;;;;;;7.17;6.57;;;20.30;99.90;;;;;;4974004;28;20786;-73
2023/05/20 10:13:47;;;;;;;8.47;7.50;;;20.50;99.90;;;;;;4974750;28;20385;-73
2023/05/20 10:16:44;;;;;;;7.20;6.50;;;20.70;99.90;;;;;;4975395;28;20456;-73
2023/05/20 10:19:10;;;;;;;7.50;6.90;;;20.60;99.90;;;;;;4974897;28;20399;-72
2023/05/20 10:21:36;;;;;;;7.40;6.70;;;20.80;99.90;;;;;;4974028;28;20405;-73
2023/05/20 10:24:09;;;;;;;7.20;6.50;;;21.10;99.90;;;;;;4973485;28;20638;-72
2023/05/20 10:26:40;;;;;;;6.20;5.53;;;21.00;99.90;;;;;;4989375;23;20510;-71
2023/05/20 10:29:16;;;;;;;7.07;6.37;;;21.10;99.90;;;;;;4992490;28;20419;-71
2023/05/20 10:31:48;;;;;;;6.20;5.60;;;20.90;99.90;;;;;;4992317;28;20396;-72
2023/05/20 10:34:16;;;;;;;6.60;6.00;;;21.00;99.90;;;;;;4992241;28;20376;-71
2023/05/20 10:37:05;;;;;;;6.40;5.83;;;20.90;99.90;;;;;;4992283;28;20466;-71
2023/05/20 10:39:34;;;;;;;6.93;6.33;;;20.90;99.90;;;;;;4992578;28;20424;-71
2023/05/20 10:42:10;;;;;;;6.60;6.00;;;20.90;99.90;;;;;;4991971;28;20407;-72
2023/05/20 10:44:46;;;;;;;6.30;5.70;;;21.30;99.90;;;;;;4996105;28;20395;-72
2023/05/20 10:47:12;;;;;;;6.30;5.70;;;21.40;99.90;;;;;;4996762;28;20419;-72
2023/05/20 10:49:45;;;;;;;6.10;5.63;;;21.60;99.90;;;;;;4995816;28;20484;-72
2023/05/20 10:52:12;;;;;;;8.03;7.33;;;22.10;99.90;;;;;;4995833;28;20432;-72
2023/05/20 10:55:06;;;;;;;6.50;6.00;;;22.50;99.90;;;;;;4978283;28;20851;-72
2023/05/20 10:57:33;;;;;;;6.73;6.13;;;22.20;99.90;;;;;;4984176;28;20460;-72
2023/05/20 10:59:59;;;;;;;6.40;5.90;;;22.20;99.90;;;;;;4976541;28;20784;-72
2023/05/20 11:02:27;;;;;;;6.57;5.67;;;22.10;99.90;;;;;;4958998;28;20404;-72
2023/05/20 11:04:57;;;;;;;6.23;5.73;;;22.00;99.90;;;;;;4976752;28;20432;-72
2023/05/20 11:07:27;;;;;;;5.77;5.27;;;22.10;99.90;;;;;;4976227;28;20484;-72
2023/05/20 11:09:54;;;;;;;6.50;6.00;;;22.30;99.90;;;;;;4976255;28;20883;-72
2023/05/20 11:12:24;;;;;;;5.93;5.43;;;22.20;99.90;;;;;;4975929;28;20628;-72
2023/05/20 11:14:50;;;;;;;6.20;5.70;;;22.40;99.90;;;;;;4977494;28;20389;-71
2023/05/20 11:17:17;;;;;;;7.83;5.70;;;22.30;99.90;;;;;;4976988;28;20443;-72
2023/05/20 11:19:42;;;;;;;5.50;5.10;;;22.80;99.90;;;;;;4959094;28;20559;-72
2023/05/20 11:22:08;;;;;;;5.00;4.60;;;23.70;99.90;;;;;;4976392;28;20401;-72
2023/05/20 11:24:34;;;;;;;5.80;4.67;;;24.10;98.30;;;;;;4976806;28;20178;-72
2023/05/20 11:27:05;;;;;;;4.80;4.40;;;24.60;98.00;;;;;;4982704;28;20322;-73
2023/05/20 11:29:32;;;;;;;5.37;4.97;;;24.30;97.60;;;;;;4996468;28;20161;-72
2023/05/20 11:31:59;;;;;;;4.70;4.30;;;23.70;97.90;;;;;;4995799;28;20430;-72
2023/05/20 11:34:25;;;;;;;5.20;4.80;;;25.50;97.30;;;;;;4996192;28;20952;-72
2023/05/20 11:36:57;;;;;;;7.23;4.53;;;26.90;93.70;;;;;;4977797;28;20529;-72
2023/05/20 11:39:26;;;;;;;4.70;4.30;;;27.50;91.70;;;;;;4996693;28;20404;-72
2023/05/20 11:41:52;;;;;;;4.40;4.00;;;27.70;90.90;;;;;;4995218;28;20503;-73
2023/05/20 11:44:19;;;;;;;4.67;4.27;;;27.90;90.20;;;;;;4995188;28;20598;-72
2023/05/20 11:46:46;;;;;;;5.30;4.80;;;28.10;89.30;;;;;;4995311;28;20575;-72
2023/05/20 11:49:13;;;;;;;4.60;4.20;;;26.60;89.70;;;;;;4995250;28;20443;-72
2023/05/20 11:51:39;;;;;;;6.47;5.33;;;26.50;91.60;;;;;;4995534;28;20828;-72
2023/05/20 11:54:06;;;;;;;5.80;5.37;;;26.30;91.40;;;;;;4994381;28;20774;-72
2023/05/20 11:56:40;;;;;;;4.90;4.50;;;25.30;92.60;;;;;;4994434;28;20463;-73
2023/05/20 11:59:07;;;;;;;5.67;5.17;;;24.90;93.00;;;;;;4994942;28;20425;-72
2023/05/20 12:01:44;;;;;;;5.50;4.33;;;24.80;93.40;;;;;;4995141;28;20404;-72
2023/05/20 12:04:15;;;;;;;4.53;4.23;;;24.70;93.50;;;;;;4995232;28;20383;-71
2023/05/20 12:06:41;;;;;;;5.10;4.70;;;25.00;94.60;;;;;;4995108;28;20434;-71
2023/05/20 12:09:07;;;;;;;6.13;5.13;;;25.00;93.10;;;;;;4995091;28;20408;-71
2023/05/20 12:11:39;;;;;;;5.23;4.83;;;24.90;93.70;;;;;;4994618;28;20419;-72
2023/05/20 12:14:05;;;;;;;6.10;5.70;;;25.70;94.10;;;;;;4994755;28;20443;-71
2023/05/20 12:16:31;;;;;;;7.57;5.50;;;26.30;91.80;;;;;;4994940;28;20492;-71
2023/05/20 12:18:57;;;;;;;5.43;4.97;;;27.60;90.30;;;;;;4995076;28;20173;-72
2023/05/20 12:21:23;;;;;;;5.13;4.73;;;28.10;88.70;;;;;;4994849;28;20404;-72
2023/05/20 12:23:48;;;;;;;4.90;4.50;;;28.90;87.30;;;;;;4994776;28;20188;-72
2023/05/20 12:26:14;;;;;;;5.23;4.57;;;28.60;85.80;;;;;;4994191;28;20660;-72
2023/05/20 12:28:40;;;;;;;5.33;4.93;;;28.60;84.70;;;;;;4994156;28;20164;-72
2023/05/20 12:31:06;;;;;;;5.03;4.63;;;28.00;86.70;;;;;;4994802;28;20172;-72
2023/05/20 12:33:31;;;;;;;6.00;5.50;;;27.80;86.90;;;;;;4994518;28;20263;-72
2023/05/20 12:35:57;;;;;;;4.30;3.97;;;27.60;86.50;;;;;;4994209;28;20483;-71
2023/05/20 12:38:23;;;;;;;4.97;4.57;;;27.60;87.60;;;;;;4994309;28;20635;-71
2023/05/20 12:40:48;;;;;;;5.50;5.10;;;27.30;88.40;;;;;;4994633;28;20165;-71
2023/05/20 12:43:14;;;;;;;4.77;4.37;;;26.70;88.00;;;;;;4993992;28;20176;-72
2023/05/20 12:45:40;;;;;;;4.70;4.30;;;27.20;88.00;;;;;;4994231;28;20255;-72